Time;durP1;ratioP1;P1;durP2;ratioP2;P2;SDS_P1;SDS_P2;PMS_P1;PMS_P2;Temp;Humidity;BMP_temperature;BMP_pressure;BME280_temperature;BME280_humidity;BME280_pressure;Samples;Min_cycle;Max_cycle;Signal;HPM_P1;HPM_P2
2021/08/15 00:03:28;;;;;;;15.32;8.20;;;;;;;16.70;64.89;100566.78;8478353;33;21090;-71
2021/08/15 00:08:31;;;;;;;11.90;7.70;;;;;;;16.84;64.90;100566.22;8474917;33;20370;-71
2021/08/15 00:13:34;;;;;;;14.77;8.43;;;;;;;17.01;64.35;100559.00;8477807;33;21044;-71
2021/08/15 00:18:39;;;;;;;11.27;8.10;;;;;;;16.92;64.39;100555.41;8479358;33;20414;-73
2021/08/15 00:23:42;;;;;;;17.92;8.23;;;;;;;16.78;64.75;100555.97;8482373;33;20662;-72
2021/08/15 00:28:45;;;;;;;13.77;8.33;;;;;;;16.52;65.98;100550.56;8482113;33;20192;-72
2021/08/15 00:33:49;;;;;;;11.98;8.27;;;;;;;16.55;66.47;100542.13;8482979;33;21494;-72
2021/08/15 00:38:52;;;;;;;16.00;9.38;;;;;;;16.59;66.29;100538.06;8487062;33;20425;-72
2021/08/15 00:43:55;;;;;;;14.25;8.93;;;;;;;16.74;65.49;100544.59;8491111;33;20420;-72
2021/08/15 00:49:00;;;;;;;15.25;8.15;;;;;;;16.69;65.57;100541.53;8483204;33;20492;-72
2021/08/15 00:54:03;;;;;;;13.02;8.15;;;;;;;16.61;66.02;100535.19;8482263;33;20140;-72
2021/08/15 00:59:07;;;;;;;16.30;8.68;;;;;;;16.58;65.62;100531.78;8484602;33;20251;-71
2021/08/15 01:04:11;;;;;;;18.42;9.15;;;;;;;16.52;66.22;100526.16;8491260;33;20936;-72
2021/08/15 01:09:14;;;;;;;13.77;8.38;;;;;;;16.48;65.91;100532.91;8489891;33;20446;-73
2021/08/15 01:14:20;;;;;;;15.65;8.60;;;;;;;16.42;65.86;100520.84;8491596;33;20472;-72
2021/08/15 01:19:31;;;;;;;12.95;8.18;;;;;;;16.31;65.63;100523.81;8495625;33;20557;-72
2021/08/15 01:24:34;;;;;;;13.63;7.88;;;;;;;16.27;65.91;100517.03;8494360;33;20476;-72
2021/08/15 01:30:00;;;;;;;14.50;8.57;;;;;;;16.09;65.82;100525.13;8493627;33;20531;-72
2021/08/15 01:35:04;;;;;;;17.10;9.45;;;;;;;15.89;66.29;100525.31;8491704;33;21866;-72
2021/08/15 01:40:09;;;;;;;16.40;8.98;;;;;;;15.66;67.16;100515.94;8495373;33;20531;-72
2021/08/15 01:45:14;;;;;;;17.30;8.90;;;;;;;15.63;67.90;100511.72;8496318;33;20412;-72
2021/08/15 01:50:17;;;;;;;19.42;9.55;;;;;;;15.66;67.53;100511.41;8493192;33;20653;-72
2021/08/15 01:55:21;;;;;;;16.27;9.85;;;;;;;15.62;67.33;100507.28;8492415;33;20472;-72
2021/08/15 02:00:25;;;;;;;14.57;9.35;;;;;;;15.51;68.05;100507.50;8492868;33;20638;-72
2021/08/15 02:05:28;;;;;;;16.02;9.60;;;;;;;15.47;67.74;100506.13;8492465;33;20981;-72
2021/08/15 02:10:32;;;;;;;17.38;9.95;;;;;;;15.43;67.99;100507.44;8493662;33;20415;-71
2021/08/15 02:15:37;;;;;;;18.23;9.35;;;;;;;15.24;68.47;100513.78;8502501;33;20414;-71
2021/08/15 02:20:40;;;;;;;17.92;10.05;;;;;;;15.24;68.79;100509.22;8508479;33;20231;-71
2021/08/15 02:25:43;;;;;;;16.67;9.00;;;;;;;15.26;68.54;100515.34;8508687;33;20465;-72
2021/08/15 02:30:48;;;;;;;15.68;9.50;;;;;;;15.25;68.32;100510.94;8514398;33;20430;-71
2021/08/15 02:35:53;;;;;;;15.88;9.18;;;;;;;15.24;68.02;100506.50;8513881;33;20430;-71
2021/08/15 02:40:56;;;;;;;14.88;9.18;;;;;;;15.21;68.19;100493.28;8514177;33;21794;-72
2021/08/15 02:46:00;;;;;;;15.32;9.32;;;;;;;15.15;68.12;100493.06;8512786;33;20433;-71
2021/08/15 02:51:04;;;;;;;14.00;9.25;;;;;;;15.08;68.43;100484.69;8513942;33;20184;-72
2021/08/15 02:56:07;;;;;;;16.38;9.20;;;;;;;15.02;68.43;100479.88;8513255;33;20559;-73
2021/08/15 03:01:11;;;;;;;14.70;9.13;;;;;;;14.90;68.44;100472.97;8505371;33;20455;-72
2021/08/15 03:06:15;;;;;;;19.65;10.15;;;;;;;14.62;69.71;100464.84;8456795;33;20146;-71
2021/08/15 03:11:19;;;;;;;16.92;9.50;;;;;;;14.67;69.57;100462.53;8474321;33;20176;-72
2021/08/15 03:16:23;;;;;;;19.00;10.07;;;;;;;14.60;69.67;100467.69;8477525;33;20207;-71
2021/08/15 03:21:29;;;;;;;17.45;8.95;;;;;;;14.51;69.84;100460.50;8481076;33;20562;-73
2021/08/15 03:26:33;;;;;;;18.75;9.55;;;;;;;14.46;69.59;100457.38;8479919;33;20436;-72
2021/08/15 03:31:37;;;;;;;16.60;8.93;;;;;;;14.28;70.36;100459.94;8469425;33;20125;-73
2021/08/15 03:36:40;;;;;;;20.30;10.50;;;;;;;14.33;70.13;100456.81;8466507;33;20434;-73
2021/08/15 03:41:44;;;;;;;17.40;9.95;;;;;;;14.31;70.13;100445.28;8462023;33;21041;-72
2021/08/15 03:46:48;;;;;;;17.50;10.13;;;;;;;14.14;71.23;100431.53;8466659;33;20194;-72
2021/08/15 03:51:52;;;;;;;17.95;11.40;;;;;;;14.21;71.58;100434.53;8458396;33;20469;-73
2021/08/15 03:56:55;;;;;;;20.13;11.30;;;;;;;14.20;71.48;100427.41;8462282;33;21511;-72
2021/08/15 04:01:59;;;;;;;18.30;11.25;;;;;;;14.22;71.59;100421.88;8482308;33;20629;-72
2021/08/15 04:07:03;;;;;;;18.15;10.57;;;;;;;14.31;71.60;100413.72;8489651;33;20425;-72
2021/08/15 04:12:06;;;;;;;18.67;11.27;;;;;;;14.37;71.07;100402.34;8500349;33;20203;-72
2021/08/15 04:17:11;;;;;;;20.00;11.32;;;;;;;14.37;71.15;100407.75;8500474;33;20149;-70
2021/08/15 04:22:14;;;;;;;18.60;10.43;;;;;;;14.29;71.04;100404.94;8488766;33;20188;-72
2021/08/15 04:27:17;;;;;;;17.20;10.40;;;;;;;14.22;71.66;100405.66;8547215;27;20434;-73
2021/08/15 04:32:22;;;;;;;20.63;9.98;;;;;;;14.13;72.04;100402.00;8510593;33;21216;-73
2021/08/15 04:37:25;;;;;;;20.30;9.98;;;;;;;14.15;72.19;100398.16;8519189;33;20474;-73
2021/08/15 04:42:28;;;;;;;24.20;9.93;;;;;;;14.16;71.78;100394.44;8538138;33;20155;-74
2021/08/15 04:47:32;;;;;;;18.35;10.48;;;;;;;14.26;71.54;100389.03;8512617;33;20224;-73
2021/08/15 04:52:35;;;;;;;18.77;10.65;;;;;;;14.30;71.07;100389.56;8517556;33;20467;-73
2021/08/15 04:57:38;;;;;;;22.08;10.32;;;;;;;14.34;71.48;100397.22;8517391;33;20460;-73
2021/08/15 05:02:43;;;;;;;17.05;10.38;;;;;;;14.41;71.20;100408.31;8518229;33;20659;-73
2021/08/15 05:07:46;;;;;;;18.60;10.20;;;;;;;14.57;70.78;100399.56;8523035;33;20151;-73
2021/08/15 05:12:49;;;;;;;20.05;10.63;;;;;;;14.64;70.66;100405.22;8538537;33;20439;-73
2021/08/15 05:17:54;;;;;;;15.88;9.32;;;;;;;14.62;70.21;100404.50;8540327;33;20469;-73
2021/08/15 05:22:58;;;;;;;19.52;10.05;;;;;;;14.63;70.60;100404.38;8541594;33;20419;-73
2021/08/15 05:28:01;;;;;;;21.58;10.57;;;;;;;14.61;70.63;100414.47;8536884;33;20168;-73
2021/08/15 05:33:05;;;;;;;18.67;10.38;;;;;;;14.68;70.57;100412.88;8531466;33;20724;-73
2021/08/15 05:38:08;;;;;;;20.25;10.73;;;;;;;14.76;70.62;100404.88;8521889;33;20456;-73
2021/08/15 05:43:12;;;;;;;20.73;9.60;;;;;;;14.80;70.42;100405.41;8523298;33;20521;-73
2021/08/15 05:48:17;;;;;;;20.45;10.68;;;;;;;14.99;69.95;100413.41;8523699;33;20687;-73
2021/08/15 05:53:20;;;;;;;16.05;9.50;;;;;;;15.32;69.52;100402.91;8527293;33;21061;-73
2021/08/15 05:58:23;;;;;;;11.60;7.07;;;;;;;16.05;68.13;100405.41;8526161;33;21044;-74
2021/08/15 06:03:28;;;;;;;14.50;8.27;;;;;;;16.84;65.96;100405.28;8527594;33;20425;-74
2021/08/15 06:08:31;;;;;;;20.20;9.52;;;;;;;17.07;63.75;100408.25;8536234;33;20144;-73
2021/08/15 06:13:34;;;;;;;13.63;7.95;;;;;;;16.91;65.08;100399.03;8541331;33;20187;-74
2021/08/15 06:18:38;;;;;;;19.27;9.77;;;;;;;17.18;64.52;100397.94;8542578;33;20145;-74
2021/08/15 06:23:41;;;;;;;18.98;9.77;;;;;;;17.06;65.05;100387.53;8546488;33;20545;-73
2021/08/15 06:28:44;;;;;;;20.23;10.60;;;;;;;16.83;65.38;100382.72;8569149;33;20515;-74
2021/08/15 06:33:57;;;;;;;19.60;10.02;;;;;;;17.07;65.51;100371.09;8545405;33;20256;-74
2021/08/15 06:39:00;;;;;;;17.13;10.00;;;;;;;17.38;64.78;100376.75;8546061;33;20988;-74
2021/08/15 06:44:04;;;;;;;16.00;8.55;;;;;;;17.95;63.55;100377.72;8541475;33;20460;-73
2021/08/15 06:49:08;;;;;;;15.68;9.25;;;;;;;18.35;62.96;100380.38;8541990;33;20615;-74
2021/08/15 06:54:11;;;;;;;19.83;10.57;;;;;;;18.24;62.84;100380.75;8539738;33;20499;-74
2021/08/15 06:59:14;;;;;;;17.98;10.52;;;;;;;18.32;62.76;100371.69;8532028;33;20442;-74
2021/08/15 07:04:19;;;;;;;18.70;10.30;;;;;;;18.27;62.58;100379.56;8527321;33;20547;-74
2021/08/15 07:09:22;;;;;;;14.82;9.02;;;;;;;18.32;62.38;100369.84;8525788;33;20223;-74
2021/08/15 07:14:25;;;;;;;21.13;10.73;;;;;;;18.33;62.35;100385.13;8525471;33;20118;-74
2021/08/15 07:19:29;;;;;;;18.27;10.50;;;;;;;18.37;63.01;100382.91;8525277;33;20606;-74
2021/08/15 07:24:32;;;;;;;20.80;10.25;;;;;;;18.43;62.06;100386.78;8524010;33;20922;-74
2021/08/15 07:29:35;;;;;;;18.27;10.25;;;;;;;18.45;60.93;100371.16;8523617;33;20536;-74
2021/08/15 07:34:40;;;;;;;19.80;10.75;;;;;;;18.60;59.88;100363.97;8524761;33;21009;-74
2021/08/15 07:39:43;;;;;;;18.73;10.57;;;;;;;18.95;59.09;100359.03;8525778;33;20690;-74
2021/08/15 07:44:46;;;;;;;17.52;10.88;;;;;;;18.96;58.51;100363.44;8523979;33;20160;-74
2021/08/15 07:49:50;;;;;;;14.68;10.02;;;;;;;18.96;59.18;100356.13;8534945;33;20177;-74
2021/08/15 07:54:53;;;;;;;23.23;10.60;;;;;;;18.95;58.45;100345.41;8538351;33;20517;-74
2021/08/15 07:59:56;;;;;;;22.65;11.35;;;;;;;18.93;58.79;100347.50;8527550;33;20553;-74
2021/08/15 08:05:01;;;;;;;16.60;9.00;;;;;;;19.48;57.95;100343.66;8527019;33;21014;-76
2021/08/15 08:10:05;;;;;;;16.33;9.32;;;;;;;20.31;55.45;100339.94;8525239;33;20460;-76
2021/08/15 08:15:10;;;;;;;17.63;9.90;;;;;;;20.52;54.07;100336.44;8524509;33;20419;-76
2021/08/15 08:20:17;;;;;;;16.25;10.15;;;;;;;20.68;54.13;100348.16;8523482;33;20148;-76
2021/08/15 08:25:20;;;;;;;15.05;9.38;;;;;;;21.34;52.21;100331.69;8524477;33;20566;-74
2021/08/15 08:30:23;;;;;;;17.35;9.50;;;;;;;21.42;52.46;100326.94;8523078;33;20976;-76
2021/08/15 08:35:29;;;;;;;15.65;8.95;;;;;;;20.86;52.97;100317.72;8521951;33;20415;-76
2021/08/15 08:40:33;;;;;;;16.60;9.68;;;;;;;21.98;51.61;100317.06;8522888;33;20530;-76
2021/08/15 08:45:40;;;;;;;15.20;8.45;;;;;;;23.21;48.72;100313.34;8521841;33;20283;-76
2021/08/15 08:50:45;;;;;;;14.23;8.52;;;;;;;22.20;50.21;100318.66;8522601;33;20409;-75
2021/08/15 08:55:48;;;;;;;11.40;7.15;;;;;;;21.60;51.77;100311.91;8520300;33;20223;-76
2021/08/15 09:00:51;;;;;;;12.43;6.25;;;;;;;22.22;50.83;100315.72;8515773;33;20246;-76
2021/08/15 09:05:56;;;;;;;10.82;6.65;;;;;;;22.37;50.17;100308.19;8511067;33;20430;-76
2021/08/15 09:11:14;;;;;;;11.52;7.72;;;;;;;24.24;45.88;100288.13;8512277;33;20568;-74
2021/08/15 09:16:17;;;;;;;11.10;7.22;;;;;;;23.46;47.21;100285.31;8516253;33;20137;-76
2021/08/15 09:21:30;;;;;;;12.48;6.78;;;;;;;23.25;48.01;100271.81;8519225;33;20480;-75
2021/08/15 09:26:33;;;;;;;11.18;5.63;;;;;;;23.87;47.22;100262.28;8524782;33;20232;-73
2021/08/15 09:31:36;;;;;;;13.63;5.55;;;;;;;23.49;47.11;100265.69;8521139;33;20605;-76
2021/08/15 09:36:42;;;;;;;10.30;5.40;;;;;;;23.25;48.25;100260.84;8519082;33;20664;-76
2021/08/15 09:41:51;;;;;;;11.00;5.57;;;;;;;23.35;48.10;100275.00;8524711;33;20446;-76
2021/08/15 09:47:07;;;;;;;7.90;4.43;;;;;;;24.00;46.02;100262.25;8533774;33;20450;-75
2021/08/15 09:52:14;;;;;;;8.23;4.82;;;;;;;23.13;47.40;100266.97;8543971;33;20434;-76
2021/08/15 09:57:30;;;;;;;9.32;5.82;;;;;;;23.43;47.92;100259.16;8542152;33;20141;-76
2021/08/15 10:02:33;;;;;;;13.07;5.13;;;;;;;24.38;45.48;100253.25;8543472;33;20544;-75
2021/08/15 10:07:39;;;;;;;8.57;3.58;;;;;;;23.86;44.49;100253.22;8544310;33;20192;-76
2021/08/15 10:12:42;;;;;;;7.50;3.92;;;;;;;24.04;45.49;100247.03;8545474;33;20516;-76
2021/08/15 10:17:49;;;;;;;9.27;5.60;;;;;;;24.41;44.32;100239.13;8541984;33;21052;-76
2021/08/15 10:23:07;;;;;;;9.07;5.07;;;;;;;24.45;44.44;100236.75;8536959;33;20940;-76
2021/08/15 10:28:48;;;;;;;14.77;4.45;;;;;;;25.12;43.41;100234.41;8507681;27;20695;-73
2021/08/15 10:33:56;;;;;;;9.68;3.95;;;;;;;25.31;41.46;100227.06;8420027;34;20415;-72
2021/08/15 10:39:02;;;;;;;5.72;3.80;;;;;;;25.56;40.65;100218.78;8415755;34;20490;-72
2021/08/15 10:44:05;;;;;;;9.70;4.15;;;;;;;25.76;41.48;100219.47;8414959;34;20378;-72
2021/08/15 10:49:11;;;;;;;4.78;3.88;;;;;;;25.71;40.76;100205.56;8418449;34;20444;-72
2021/08/15 10:55:11;;;;;;;7.07;4.05;;;;;;;25.51;41.20;100197.50;8412344;34;20561;-71
2021/08/15 11:00:42;;;;;;;6.80;3.47;;;;;;;25.85;40.56;100187.81;8416469;34;20131;-71
2021/08/15 11:05:46;;;;;;;5.25;3.25;;;;;;;25.71;40.31;100188.22;8415733;34;20508;-71
2021/08/15 11:11:07;;;;;;;7.10;3.50;;;;;;;25.88;40.09;100178.25;8414698;34;20260;-71
2021/08/15 11:16:45;;;;;;;7.10;3.58;;;;;;;26.59;38.22;100162.91;8414520;34;20473;-72
2021/08/15 11:22:25;;;;;;;5.60;2.53;;;;;;;26.26;38.82;100163.41;8414551;34;21133;-72
2021/08/15 11:27:36;;;;;;;6.53;4.15;;;;;;;25.94;39.62;100163.56;8414970;34;20479;-72
2021/08/15 11:32:41;;;;;;;5.65;3.70;;;;;;;26.05;39.91;100168.31;8427575;34;20603;-72
2021/08/15 11:37:53;;;;;;;5.60;3.13;;;;;;;26.63;39.12;100138.47;8426102;34;20149;-72
2021/08/15 11:43:04;;;;;;;11.20;3.17;;;;;;;27.44;38.37;100147.91;8413797;34;20138;-72
2021/08/15 11:48:13;;;;;;;6.65;2.72;;;;;;;26.12;39.88;100135.19;8412891;34;20494;-72
2021/08/15 11:53:23;;;;;;;4.57;2.30;;;;;;;25.49;40.10;100124.56;8410993;34;20491;-72
2021/08/15 11:58:28;;;;;;;4.75;2.25;;;;;;;25.49;39.64;100116.31;8410966;34;20451;-72
2021/08/15 12:03:31;;;;;;;4.40;2.42;;;;;;;25.76;40.21;100114.09;8412877;34;20157;-72
2021/08/15 12:08:36;;;;;;;3.90;2.67;;;;;;;25.51;40.41;100101.25;8411578;34;20627;-71
2021/08/15 12:13:41;;;;;;;3.05;2.22;;;;;;;26.67;38.07;100114.91;8408187;34;20501;-72
2021/08/15 12:18:53;;;;;;;5.07;2.65;;;;;;;27.05;37.68;100094.34;8410826;34;20657;-72
2021/08/15 12:24:08;;;;;;;5.53;2.80;;;;;;;28.25;36.29;100103.78;8410711;34;20197;-72
2021/08/15 12:29:21;;;;;;;2.88;2.25;;;;;;;27.78;36.34;100088.25;8409357;34;20178;-73
2021/08/15 12:34:25;;;;;;;6.25;2.50;;;;;;;27.57;37.18;100075.94;8409170;34;20284;-73
2021/08/15 12:39:31;;;;;;;3.42;2.40;;;;;;;29.01;34.50;100084.88;8409057;34;20233;-72
2021/08/15 12:44:49;;;;;;;5.72;2.75;;;;;;;27.99;36.41;100069.34;8409242;34;20170;-72
2021/08/15 12:50:04;;;;;;;11.68;3.03;;;;;;;27.87;37.10;100072.13;8409896;34;20279;-73
2021/08/15 12:55:23;;;;;;;4.20;2.70;;;;;;;28.01;36.04;100068.00;8410205;34;20431;-71
2021/08/15 13:00:31;;;;;;;4.82;2.60;;;;;;;28.47;34.23;100052.25;8414782;34;20498;-71
2021/08/15 13:05:37;;;;;;;2.50;2.30;;;;;;;28.24;35.23;100055.16;8416275;34;20417;-72
2021/08/15 13:10:42;;;;;;;3.63;2.03;;;;;;;28.27;35.29;100041.66;8424274;34;20146;-73
2021/08/15 13:15:46;;;;;;;5.18;2.83;;;;;;;27.07;36.56;100048.94;8416642;34;20431;-72
2021/08/15 13:20:49;;;;;;;4.05;1.98;;;;;;;26.07;36.69;100025.81;8411483;34;20245;-72
2021/08/15 13:25:53;;;;;;;5.30;2.17;;;;;;;27.35;36.40;100020.59;8411915;34;20212;-72
2021/08/15 13:30:57;;;;;;;3.05;1.80;;;;;;;27.43;35.76;100024.06;8410769;34;20209;-73
2021/08/15 13:36:00;;;;;;;9.57;2.35;;;;;;;27.38;36.25;100019.25;8410130;34;20458;-72
2021/08/15 13:41:04;;;;;;;3.42;2.42;;;;;;;27.53;36.10;100010.47;8412970;34;20500;-72
2021/08/15 13:46:08;;;;;;;2.65;1.70;;;;;;;27.59;35.94;100007.59;8413786;34;21012;-72
2021/08/15 13:51:12;;;;;;;3.77;1.70;;;;;;;27.42;34.89;100005.84;8416604;34;20449;-72
2021/08/15 13:56:15;;;;;;;2.63;1.63;;;;;;;27.13;36.28;100003.84;8422222;34;20546;-72
2021/08/15 14:01:20;;;;;;;2.83;1.70;;;;;;;27.41;35.97;99993.16;8416552;34;20466;-72
2021/08/15 14:06:24;;;;;;;5.55;1.73;;;;;;;27.30;36.03;99986.56;8416872;34;20647;-73
2021/08/15 14:11:27;;;;;;;5.82;1.83;;;;;;;26.38;38.04;99989.97;8414150;34;20182;-73
2021/08/15 14:16:33;;;;;;;4.15;2.00;;;;;;;26.85;37.04;99976.22;8413944;34;20440;-72
2021/08/15 14:21:37;;;;;;;5.50;1.73;;;;;;;27.28;36.38;99961.97;8413900;34;20139;-72
2021/08/15 14:26:42;;;;;;;6.75;2.10;;;;;;;26.85;35.36;99955.03;8413492;34;20240;-72
2021/08/15 14:31:47;;;;;;;4.80;2.30;;;;;;;26.61;36.36;99945.09;8410238;34;20505;-72
2021/08/15 14:36:50;;;;;;;3.90;2.45;;;;;;;25.54;38.52;99951.47;8403708;34;20150;-72
2021/08/15 14:41:53;;;;;;;3.10;2.30;;;;;;;26.20;38.40;99939.44;8403732;34;20165;-72
2021/08/15 14:46:59;;;;;;;3.08;2.30;;;;;;;26.77;37.88;99925.06;8402075;34;20201;-72
2021/08/15 14:52:02;;;;;;;5.00;2.83;;;;;;;27.10;35.90;99920.81;8403457;34;20680;-73
2021/08/15 14:57:07;;;;;;;2.83;2.03;;;;;;;26.68;35.72;99927.34;8402853;34;20196;-73
2021/08/15 15:02:12;;;;;;;2.42;2.05;;;;;;;27.10;35.52;99916.16;8408758;34;20924;-73
2021/08/15 15:07:17;;;;;;;6.03;2.10;;;;;;;26.99;36.02;99900.50;8409502;34;20433;-72
2021/08/15 15:12:20;;;;;;;4.40;2.50;;;;;;;27.17;36.55;99894.78;8404346;34;20147;-71
2021/08/15 15:17:24;;;;;;;5.57;2.67;;;;;;;26.19;38.52;99907.50;8402697;34;20684;-71
2021/08/15 15:22:27;;;;;;;5.88;2.58;;;;;;;26.25;38.39;99895.56;8402057;34;20417;-72
2021/08/15 15:27:31;;;;;;;5.70;2.47;;;;;;;26.54;38.59;99909.41;8405251;34;20502;-71
2021/08/15 15:32:36;;;;;;;3.25;2.22;;;;;;;26.45;38.85;99897.94;8408228;34;20610;-71
2021/08/15 15:37:40;;;;;;;4.45;2.50;;;;;;;26.44;38.85;99898.16;8406028;34;21210;-72
2021/08/15 15:42:43;;;;;;;2.80;2.20;;;;;;;26.12;39.01;99897.69;8405158;34;20462;-72
2021/08/15 15:47:47;;;;;;;3.63;2.40;;;;;;;26.42;38.01;99884.66;8402530;34;20505;-72
2021/08/15 15:52:51;;;;;;;5.00;2.47;;;;;;;26.71;37.31;99880.06;8405492;34;20654;-72
2021/08/15 15:57:54;;;;;;;2.70;2.38;;;;;;;26.54;38.17;99878.28;8402977;34;20434;-72
2021/08/15 16:02:59;;;;;;;6.55;3.22;;;;;;;27.18;37.52;99879.91;8406831;34;20283;-73
2021/08/15 16:08:04;;;;;;;3.55;2.35;;;;;;;25.77;39.60;99888.31;8415908;34;20138;-73
2021/08/15 16:13:08;;;;;;;2.55;2.15;;;;;;;26.33;39.39;99880.59;8417553;34;20422;-72
2021/08/15 16:18:12;;;;;;;3.55;2.80;;;;;;;25.99;39.72;99887.72;8405741;34;20154;-71
2021/08/15 16:23:15;;;;;;;6.07;3.08;;;;;;;25.74;40.17;99868.69;8404901;34;20427;-73
2021/08/15 16:28:18;;;;;;;3.80;2.10;;;;;;;25.66;40.39;99878.13;8454584;27;20445;-75
2021/08/15 16:33:23;;;;;;;3.92;2.83;;;;;;;25.79;40.55;99864.16;8464496;33;20426;-73
2021/08/15 16:38:26;;;;;;;6.60;2.72;;;;;;;26.00;40.12;99860.00;8468821;33;20142;-71
2021/08/15 16:43:29;;;;;;;3.75;2.05;;;;;;;26.21;39.63;99852.19;8468915;33;20146;-71
2021/08/15 16:48:33;;;;;;;6.90;3.03;;;;;;;26.00;40.23;99850.88;8468770;33;20514;-71
2021/08/15 16:53:36;;;;;;;3.47;1.85;;;;;;;25.30;40.47;99835.94;8468970;33;20730;-71
2021/08/15 16:58:40;;;;;;;3.60;2.00;;;;;;;25.22;39.75;99841.75;8467911;33;20926;-72
2021/08/15 17:03:45;;;;;;;4.95;1.92;;;;;;;24.87;40.25;99831.44;8468791;33;20426;-71
2021/08/15 17:08:48;;;;;;;4.38;2.35;;;;;;;25.25;39.99;99832.22;8463565;33;20240;-72
2021/08/15 17:13:51;;;;;;;4.00;2.00;;;;;;;25.15;39.62;99841.88;8465706;33;20152;-71
2021/08/15 17:18:55;;;;;;;4.03;2.08;;;;;;;24.71;40.44;99823.84;8466811;33;20185;-72
2021/08/15 17:23:58;;;;;;;5.18;2.08;;;;;;;24.93;40.12;99827.78;8467030;33;21114;-78
2021/08/15 17:29:01;;;;;;;4.25;2.50;;;;;;;25.68;38.91;99825.66;8466260;33;20517;-72
2021/08/15 17:34:06;;;;;;;3.67;2.38;;;;;;;25.28;39.92;99824.31;8487221;33;20459;-72
2021/08/15 17:39:09;;;;;;;4.32;2.20;;;;;;;24.81;40.84;99820.56;8464839;33;20673;-72
2021/08/15 17:44:12;;;;;;;6.57;2.47;;;;;;;24.28;42.03;99814.63;8462574;33;20145;-72
2021/08/15 17:49:16;;;;;;;3.90;2.42;;;;;;;25.45;39.96;99815.41;8465433;33;20146;-73
2021/08/15 17:54:20;;;;;;;5.03;2.25;;;;;;;24.78;40.88;99807.28;8465381;33;20433;-72
2021/08/15 17:59:23;;;;;;;4.53;2.25;;;;;;;24.66;41.42;99801.75;8473357;33;20209;-74
2021/08/15 18:04:27;;;;;;;5.57;2.50;;;;;;;24.30;42.18;99801.50;8473490;33;20224;-72
2021/08/15 18:09:30;;;;;;;5.32;2.35;;;;;;;23.80;43.10;99809.81;8475590;33;20607;-72
2021/08/15 18:14:33;;;;;;;4.53;2.50;;;;;;;23.72;43.28;99812.00;8472215;33;20514;-75
2021/08/15 18:19:38;;;;;;;5.72;3.03;;;;;;;23.59;43.21;99807.47;8473105;33;20443;-72
2021/08/15 18:24:43;;;;;;;10.60;2.90;;;;;;;23.51;43.57;99811.34;8471417;33;20412;-72
2021/08/15 18:29:47;;;;;;;3.67;2.80;;;;;;;23.20;43.90;99804.81;8468276;33;20141;-74
2021/08/15 18:34:51;;;;;;;3.53;2.30;;;;;;;23.15;43.91;99815.59;8470558;33;20471;-72
2021/08/15 18:39:55;;;;;;;4.97;2.72;;;;;;;22.91;44.31;99816.34;8472665;33;20653;-74
2021/08/15 18:44:58;;;;;;;4.63;3.03;;;;;;;22.82;44.74;99815.78;8468848;33;20138;-72
2021/08/15 18:50:03;;;;;;;5.60;2.53;;;;;;;22.64;45.24;99811.00;8470072;33;20157;-72
2021/08/15 18:55:09;;;;;;;5.93;3.33;;;;;;;22.59;45.15;99812.72;8467424;33;20509;-71
2021/08/15 19:00:15;;;;;;;3.92;2.83;;;;;;;22.48;45.47;99817.78;8467789;33;20697;-72
2021/08/15 19:05:19;;;;;;;5.03;2.78;;;;;;;22.45;45.10;99817.41;8463536;33;20168;-72
2021/08/15 19:10:22;;;;;;;6.97;3.17;;;;;;;22.44;46.08;99821.19;8464884;33;20442;-72
2021/08/15 19:15:26;;;;;;;5.57;3.10;;;;;;;22.33;47.08;99818.03;8463869;33;20460;-72
2021/08/15 19:20:32;;;;;;;5.38;2.78;;;;;;;22.24;47.49;99813.00;8457567;33;20705;-72
2021/08/15 19:25:36;;;;;;;4.25;2.63;;;;;;;22.15;48.51;99811.56;8457674;33;20432;-72
2021/08/15 19:30:40;;;;;;;7.53;3.17;;;;;;;22.06;48.06;99805.50;8458565;33;20634;-72
2021/08/15 19:35:44;;;;;;;4.40;2.83;;;;;;;21.89;47.61;99796.91;8457300;33;20154;-72
2021/08/15 19:40:49;;;;;;;6.68;2.78;;;;;;;21.73;47.68;99791.84;8459563;33;20426;-72
2021/08/15 19:45:52;;;;;;;6.10;3.05;;;;;;;21.68;48.03;99785.09;8464578;33;20479;-73
2021/08/15 19:50:57;;;;;;;3.72;3.00;;;;;;;21.66;47.35;99779.00;8470303;33;20588;-72
2021/08/15 19:56:00;;;;;;;6.00;2.88;;;;;;;21.64;47.93;99772.09;8468053;33;20659;-72
2021/08/15 20:01:04;;;;;;;3.40;2.75;;;;;;;21.54;47.64;99760.75;8489606;33;20142;-72
2021/08/15 20:06:09;;;;;;;4.55;3.22;;;;;;;21.43;48.00;99746.66;8467380;33;20416;-72
2021/08/15 20:11:12;;;;;;;8.35;3.22;;;;;;;21.35;48.00;99726.94;8477819;33;20263;-71
2021/08/15 20:16:15;;;;;;;5.88;3.05;;;;;;;21.25;48.20;99700.03;8478878;34;20524;-71
2021/08/15 20:21:20;;;;;;;5.53;2.75;;;;;;;21.09;48.75;99698.59;8490850;33;20516;-71
2021/08/15 20:26:23;;;;;;;3.88;2.95;;;;;;;20.88;49.46;99704.19;8467981;34;20456;-71
2021/08/15 20:31:26;;;;;;;4.32;2.70;;;;;;;20.65;50.03;99691.78;8463450;33;20184;-72
2021/08/15 20:36:31;;;;;;;4.55;2.90;;;;;;;20.70;49.90;99670.16;8461280;33;20670;-72
2021/08/15 20:41:35;;;;;;;7.03;3.22;;;;;;;20.79;49.76;99668.09;8461681;33;20515;-72
2021/08/15 20:46:40;;;;;;;5.80;2.88;;;;;;;20.79;50.01;99665.34;8483585;33;21046;-72
2021/08/15 20:51:44;;;;;;;6.60;3.88;;;;;;;20.74;49.53;99656.94;8458042;33;20235;-72
2021/08/15 20:56:49;;;;;;;6.00;3.20;;;;;;;20.74;49.27;99635.97;8459219;33;20519;-72
2021/08/15 21:01:54;;;;;;;6.25;2.85;;;;;;;20.75;49.35;99610.34;8459370;33;20506;-72
2021/08/15 21:06:59;;;;;;;3.83;2.72;;;;;;;20.74;49.96;99619.59;8458948;33;20444;-71
2021/08/15 21:12:02;;;;;;;5.50;2.75;;;;;;;20.79;50.00;99622.53;8461328;33;20567;-72
2021/08/15 21:17:05;;;;;;;5.30;2.90;;;;;;;20.87;50.04;99628.81;8460036;33;20919;-72
2021/08/15 21:22:10;;;;;;;5.78;2.97;;;;;;;20.76;51.78;99636.59;8466301;34;20950;-71
2021/08/15 21:27:13;;;;;;;8.25;3.58;;;;;;;18.35;67.10;99711.53;8462195;33;20223;-74
2021/08/15 21:32:16;;;;;;;6.50;3.45;;;;;;;16.80;77.38;99691.44;8462485;33;20228;-72
2021/08/15 21:37:20;;;;;;;5.78;3.10;;;;;;;16.45;83.05;99691.00;8463837;33;20353;-73
2021/08/15 21:42:23;;;;;;;7.47;3.08;;;;;;;16.44;87.11;99675.75;8464985;33;20969;-71
2021/08/15 21:47:26;;;;;;;1.33;1.23;;;;;;;16.29;87.12;99669.41;8474531;33;20547;-71
2021/08/15 21:52:31;;;;;;;0.55;0.55;;;;;;;16.56;89.29;99687.03;8483033;34;20983;-71
2021/08/15 21:57:36;;;;;;;0.85;0.85;;;;;;;16.14;87.74;99716.22;8481694;33;20551;-71
2021/08/15 22:02:39;;;;;;;2.80;1.58;;;;;;;15.87;88.29;99720.22;8478048;34;20674;-71
2021/08/15 22:07:43;;;;;;;1.30;1.20;;;;;;;15.82;89.43;99690.09;8468967;33;20429;-71
2021/08/15 22:12:47;;;;;;;0.57;0.57;;;;;;;16.09;89.39;99713.19;8465120;33;20416;-70
2021/08/15 22:17:50;;;;;;;0.40;0.40;;;;;;;16.01;89.03;99717.78;8463769;33;20172;-70
2021/08/15 22:22:55;;;;;;;2.78;1.20;;;;;;;16.38;90.11;99683.78;8462934;33;21046;-70
2021/08/15 22:27:58;;;;;;;1.88;0.98;;;;;;;16.50;87.96;99685.88;8463289;33;20275;-72
2021/08/15 22:33:01;;;;;;;1.48;0.73;;;;;;;16.56;89.53;99670.75;8460687;33;20488;-72
2021/08/15 22:38:06;;;;;;;0.45;0.45;;;;;;;16.77;89.77;99661.97;8458489;33;20455;-72
2021/08/15 22:43:10;;;;;;;1.20;1.10;;;;;;;16.75;89.76;99655.88;8459109;33;20491;-72
2021/08/15 22:48:13;;;;;;;1.75;0.68;;;;;;;16.98;89.18;99648.56;8462035;33;20573;-72
2021/08/15 22:53:18;;;;;;;0.70;0.70;;;;;;;17.01;88.69;99641.91;8464520;33;21041;-72
2021/08/15 22:58:21;;;;;;;0.55;0.55;;;;;;;16.98;88.45;99636.88;8466429;33;20156;-72
2021/08/15 23:03:24;;;;;;;1.17;1.08;;;;;;;16.96;88.24;99641.63;8467844;33;20754;-72
2021/08/15 23:08:29;;;;;;;0.55;0.55;;;;;;;16.85;88.18;99639.38;8467992;33;20149;-72
2021/08/15 23:13:32;;;;;;;0.43;0.43;;;;;;;16.87;88.20;99645.44;8473913;33;20150;-72
2021/08/15 23:18:35;;;;;;;0.43;0.43;;;;;;;16.73;88.06;99639.81;8463783;33;20165;-72
2021/08/15 23:23:39;;;;;;;0.82;0.70;;;;;;;16.43;86.73;99659.66;8458719;33;20852;-72
2021/08/15 23:28:42;;;;;;;3.60;0.75;;;;;;;16.13;86.89;99651.38;8456358;33;20512;-72
2021/08/15 23:33:45;;;;;;;0.30;0.30;;;;;;;16.10;86.96;99651.75;8457202;33;20453;-72
2021/08/15 23:38:50;;;;;;;1.08;1.08;;;;;;;16.03;87.13;99645.34;8455205;33;20560;-73